Ghent, New York
Current Conditions -  °F | °C
As of 11:21 AM on Thursday 30 Oct 2014 (Local Time) from KPSF Reporting Station
Broken Clouds Broken Clouds  
Wind Chill: 39°   Ceiling: 2400
Heat Index: 45°   Visibility: 10mi
Dew Point: 36°   Wind: 13mph
Humidity: 71%   Direction: 310°NW
Pressure: 29.95"   Gusts: 21mph
Location:  42.33°N, 73.62°W
Report Text: KPSF 301521Z AUTO 31011G18KT 10SM BKN024 BKN029 07/02 A2995 RMK AO2 T00720022
Loading
Personal Weather Stations






























Interactive Weather Map
Tropical Storm Tracking
New forecast layout! Learn more

10-Day Weather Forecast

Advertisements
Track Severe Weather on mobile